sensor_id;sensor_type;location;lat;lon;timestamp;pressure;altitude;pressure_sealevel;temperature;humidity
22572;BME280;11452;53.368;14.658;2022-08-11T00:04:08;102014.37;;;19.67;51.91
22572;BME280;11452;53.368;14.658;2022-08-11T00:09:20;102020.31;;;19.66;52.01
22572;BME280;11452;53.368;14.658;2022-08-11T00:14:28;102022.27;;;19.64;52.23
22572;BME280;11452;53.368;14.658;2022-08-11T00:19:44;102024.34;;;19.61;52.47
22572;BME280;11452;53.368;14.658;2022-08-11T00:24:52;102015.17;;;19.56;52.66
22572;BME280;11452;53.368;14.658;2022-08-11T00:29:59;102021.80;;;19.52;52.80
22572;BME280;11452;53.368;14.658;2022-08-11T00:35:07;102025.11;;;19.50;52.98
22572;BME280;11452;53.368;14.658;2022-08-11T00:45:38;102018.17;;;19.33;53.42
22572;BME280;11452;53.368;14.658;2022-08-11T00:50:56;102021.83;;;19.27;53.65
22572;BME280;11452;53.368;14.658;2022-08-11T01:28:54;102006.72;;;18.79;55.30
22572;BME280;11452;53.368;14.658;2022-08-11T02:01:27;102006.37;;;18.19;56.46
22572;BME280;11452;53.368;14.658;2022-08-11T02:06:57;102006.64;;;18.02;57.18
22572;BME280;11452;53.368;14.658;2022-08-11T02:12:09;102003.89;;;17.96;57.65
22572;BME280;11452;53.368;14.658;2022-08-11T02:17:47;102001.20;;;17.82;57.73
22572;BME280;11452;53.368;14.658;2022-08-11T02:23:22;102003.76;;;17.78;58.12
22572;BME280;11452;53.368;14.658;2022-08-11T02:28:11;102014.97;;;17.72;58.28
22572;BME280;11452;53.368;14.658;2022-08-11T02:33:21;102018.07;;;17.58;58.59
22572;BME280;11452;53.368;14.658;2022-08-11T02:49:14;102016.94;;;17.34;59.12
22572;BME280;11452;53.368;14.658;2022-08-11T02:54:47;102018.52;;;17.24;59.63
22572;BME280;11452;53.368;14.658;2022-08-11T03:00:11;102022.84;;;17.12;59.78
22572;BME280;11452;53.368;14.658;2022-08-11T03:10:35;102009.72;;;16.99;60.33
22572;BME280;11452;53.368;14.658;2022-08-11T03:27:27;102011.42;;;16.72;61.22
22572;BME280;11452;53.368;14.658;2022-08-11T03:32:40;101995.63;;;16.66;61.50
22572;BME280;11452;53.368;14.658;2022-08-11T03:43:02;101996.61;;;16.56;62.07
22572;BME280;11452;53.368;14.658;2022-08-11T03:54:26;101997.19;;;16.47;62.47
22572;BME280;11452;53.368;14.658;2022-08-11T04:26:55;102001.78;;;16.31;64.19
22572;BME280;11452;53.368;14.658;2022-08-11T04:38:30;102003.31;;;16.35;64.55
22572;BME280;11452;53.368;14.658;2022-08-11T05:16:16;102006.03;;;17.43;65.15
22572;BME280;11452;53.368;14.658;2022-08-11T05:21:42;102001.84;;;17.51;64.89
22572;BME280;11452;53.368;14.658;2022-08-11T05:27:08;102003.67;;;17.65;65.11
22572;BME280;11452;53.368;14.658;2022-08-11T05:32:38;102010.56;;;17.90;65.50
22572;BME280;11452;53.368;14.658;2022-08-11T05:38:09;102021.49;;;18.16;65.41
22572;BME280;11452;53.368;14.658;2022-08-11T05:43:31;102023.09;;;18.38;65.06
22572;BME280;11452;53.368;14.658;2022-08-11T05:48:57;102031.93;;;18.54;64.77
22572;BME280;11452;53.368;14.658;2022-08-11T05:54:22;102035.66;;;18.66;64.07
22572;BME280;11452;53.368;14.658;2022-08-11T05:59:49;102035.77;;;18.77;64.01
22572;BME280;11452;53.368;14.658;2022-08-11T06:04:57;102038.91;;;18.96;64.22
22572;BME280;11452;53.368;14.658;2022-08-11T06:10:04;102039.41;;;19.21;63.69
22572;BME280;11452;53.368;14.658;2022-08-11T06:15:12;102039.38;;;19.34;63.37
22572;BME280;11452;53.368;14.658;2022-08-11T06:20:18;102042.52;;;19.53;63.08
22572;BME280;11452;53.368;14.658;2022-08-11T06:25:33;102043.98;;;19.70;63.22
22572;BME280;11452;53.368;14.658;2022-08-11T06:30:41;102035.89;;;20.18;63.17
22572;BME280;11452;53.368;14.658;2022-08-11T06:41:23;102035.23;;;20.67;61.59
22572;BME280;11452;53.368;14.658;2022-08-11T06:46:37;102039.91;;;20.65;60.86
22572;BME280;11452;53.368;14.658;2022-08-11T06:51:46;102040.98;;;21.03;61.02
22572;BME280;11452;53.368;14.658;2022-08-11T06:56:53;102038.42;;;21.35;60.64
22572;BME280;11452;53.368;14.658;2022-08-11T07:02:27;102037.91;;;21.58;59.83
22572;BME280;11452;53.368;14.658;2022-08-11T07:07:57;102040.48;;;21.82;59.78
22572;BME280;11452;53.368;14.658;2022-08-11T07:13:16;102044.92;;;22.00;58.43
22572;BME280;11452;53.368;14.658;2022-08-11T07:18:43;102045.23;;;22.18;58.24
22572;BME280;11452;53.368;14.658;2022-08-11T07:24:22;102031.41;;;22.36;57.98
22572;BME280;11452;53.368;14.658;2022-08-11T07:29:50;102034.77;;;22.60;57.44
22572;BME280;11452;53.368;14.658;2022-08-11T07:35:17;102033.08;;;22.80;56.37
22572;BME280;11452;53.368;14.658;2022-08-11T07:40:23;102029.17;;;23.03;55.96
22572;BME280;11452;53.368;14.658;2022-08-11T07:45:30;102030.63;;;23.23;55.71
22572;BME280;11452;53.368;14.658;2022-08-11T07:50:54;102035.63;;;23.48;54.44
22572;BME280;11452;53.368;14.658;2022-08-11T07:56:19;102032.68;;;23.61;53.86
22572;BME280;11452;53.368;14.658;2022-08-11T08:01:27;102038.83;;;23.68;53.32
22572;BME280;11452;53.368;14.658;2022-08-11T08:06:52;102043.61;;;23.86;53.01
22572;BME280;11452;53.368;14.658;2022-08-11T08:12:19;102033.94;;;24.06;52.35
22572;BME280;11452;53.368;14.658;2022-08-11T08:17:43;102037.45;;;24.28;51.83
22572;BME280;11452;53.368;14.658;2022-08-11T08:22:58;102029.74;;;24.46;50.83
22572;BME280;11452;53.368;14.658;2022-08-11T08:28:06;102024.39;;;24.64;50.59
22572;BME280;11452;53.368;14.658;2022-08-11T08:33:21;102014.67;;;24.89;50.16
22572;BME280;11452;53.368;14.658;2022-08-11T08:38:21;102021.25;;;25.02;49.07
22572;BME280;11452;53.368;14.658;2022-08-11T08:43:27;102013.41;;;25.16;48.87
22572;BME280;11452;53.368;14.658;2022-08-11T08:48:35;102011.19;;;25.30;48.52
22572;BME280;11452;53.368;14.658;2022-08-11T08:53:45;102009.73;;;25.49;47.71
22572;BME280;11452;53.368;14.658;2022-08-11T08:58:52;102018.05;;;25.57;47.04
22572;BME280;11452;53.368;14.658;2022-08-11T09:03:58;102008.23;;;25.64;47.51
22572;BME280;11452;53.368;14.658;2022-08-11T09:09:07;102010.91;;;25.60;46.33
22572;BME280;11452;53.368;14.658;2022-08-11T09:14:13;102005.64;;;25.63;46.75
22572;BME280;11452;53.368;14.658;2022-08-11T09:19:20;102000.27;;;25.71;46.10
22572;BME280;11452;53.368;14.658;2022-08-11T09:24:27;101997.40;;;25.90;45.87
22572;BME280;11452;53.368;14.658;2022-08-11T09:29:52;101988.16;;;25.91;45.31
22572;BME280;11452;53.368;14.658;2022-08-11T09:34:58;102001.16;;;26.07;44.93
22572;BME280;11452;53.368;14.658;2022-08-11T09:40:07;101994.71;;;26.12;44.49
22572;BME280;11452;53.368;14.658;2022-08-11T09:45:32;101994.59;;;26.35;44.35
22572;BME280;11452;53.368;14.658;2022-08-11T09:50:40;101982.33;;;26.43;42.96
22572;BME280;11452;53.368;14.658;2022-08-11T09:55:47;101981.11;;;26.64;42.73
22572;BME280;11452;53.368;14.658;2022-08-11T10:00:55;101980.64;;;26.68;41.30
22572;BME280;11452;53.368;14.658;2022-08-11T10:06:04;101985.42;;;26.66;39.68
22572;BME280;11452;53.368;14.658;2022-08-11T10:11:29;101980.13;;;26.69;38.42
22572;BME280;11452;53.368;14.658;2022-08-11T10:16:38;101969.22;;;27.03;38.27
22572;BME280;11452;53.368;14.658;2022-08-11T10:21:46;101958.25;;;27.11;37.38
22572;BME280;11452;53.368;14.658;2022-08-11T10:26:55;101957.07;;;27.13;36.60
22572;BME280;11452;53.368;14.658;2022-08-11T10:32:06;101959.55;;;27.33;36.29
22572;BME280;11452;53.368;14.658;2022-08-11T10:37:32;101964.94;;;27.42;35.16
22572;BME280;11452;53.368;14.658;2022-08-11T10:42:44;101963.38;;;27.40;35.07
22572;BME280;11452;53.368;14.658;2022-08-11T10:48:08;101953.76;;;27.40;34.23
22572;BME280;11452;53.368;14.658;2022-08-11T10:53:17;101939.02;;;27.53;34.54
22572;BME280;11452;53.368;14.658;2022-08-11T10:58:42;101944.09;;;27.74;33.76
22572;BME280;11452;53.368;14.658;2022-08-11T11:04:00;101935.86;;;27.78;33.37
22572;BME280;11452;53.368;14.658;2022-08-11T11:09:15;101934.64;;;27.72;33.15
22572;BME280;11452;53.368;14.658;2022-08-11T11:14:19;101933.80;;;27.76;32.97
22572;BME280;11452;53.368;14.658;2022-08-11T11:19:46;101926.07;;;27.79;32.39
22572;BME280;11452;53.368;14.658;2022-08-11T11:30:21;101911.66;;;27.98;32.43
22572;BME280;11452;53.368;14.658;2022-08-11T11:41:01;101901.19;;;28.38;32.34
22572;BME280;11452;53.368;14.658;2022-08-11T11:46:18;101897.55;;;28.41;32.38
22572;BME280;11452;53.368;14.658;2022-08-11T11:51:24;101895.30;;;28.49;31.97
22572;BME280;11452;53.368;14.658;2022-08-11T11:56:30;101898.35;;;28.70;31.70
22572;BME280;11452;53.368;14.658;2022-08-11T12:01:37;101894.39;;;28.73;32.08
22572;BME280;11452;53.368;14.658;2022-08-11T12:06:43;101885.92;;;28.94;32.17
22572;BME280;11452;53.368;14.658;2022-08-11T12:11:50;101891.03;;;29.02;31.98
22572;BME280;11452;53.368;14.658;2022-08-11T12:17:14;101879.86;;;28.95;32.09
22572;BME280;11452;53.368;14.658;2022-08-11T12:22:19;101872.41;;;29.12;31.75
22572;BME280;11452;53.368;14.658;2022-08-11T12:27:43;101872.02;;;29.19;32.12
22572;BME280;11452;53.368;14.658;2022-08-11T12:32:49;101872.27;;;29.05;31.14
22572;BME280;11452;53.368;14.658;2022-08-11T12:37:57;101863.50;;;29.02;31.01
22572;BME280;11452;53.368;14.658;2022-08-11T12:43:09;101856.76;;;29.08;30.96
22572;BME280;11452;53.368;14.658;2022-08-11T12:48:36;101849.89;;;29.04;30.88
22572;BME280;11452;53.368;14.658;2022-08-11T12:54:08;101844.20;;;29.33;31.00
22572;BME280;11452;53.368;14.658;2022-08-11T12:59:12;101837.88;;;29.55;31.02
22572;BME280;11452;53.368;14.658;2022-08-11T13:04:36;101838.84;;;29.43;30.50
22572;BME280;11452;53.368;14.658;2022-08-11T13:10:04;101829.89;;;29.41;30.54
22572;BME280;11452;53.368;14.658;2022-08-11T13:15:17;101825.12;;;29.58;30.33
22572;BME280;11452;53.368;14.658;2022-08-11T13:20:24;101819.59;;;29.81;29.66
22572;BME280;11452;53.368;14.658;2022-08-11T13:25:32;101822.35;;;29.81;29.54
22572;BME280;11452;53.368;14.658;2022-08-11T13:30:38;101815.08;;;29.65;29.41
22572;BME280;11452;53.368;14.658;2022-08-11T13:36:03;101821.00;;;29.77;29.15
22572;BME280;11452;53.368;14.658;2022-08-11T13:41:09;101816.48;;;29.61;29.13
22572;BME280;11452;53.368;14.658;2022-08-11T13:46:34;101804.97;;;29.57;29.04
22572;BME280;11452;53.368;14.658;2022-08-11T13:51:40;101809.05;;;29.66;28.96
22572;BME280;11452;53.368;14.658;2022-08-11T13:56:48;101802.91;;;29.55;28.63
22572;BME280;11452;53.368;14.658;2022-08-11T14:02:05;101800.08;;;29.45;28.76
22572;BME280;11452;53.368;14.658;2022-08-11T14:07:10;101788.27;;;29.55;28.89
22572;BME280;11452;53.368;14.658;2022-08-11T14:12:23;101784.97;;;29.78;28.82
22572;BME280;11452;53.368;14.658;2022-08-11T14:18:02;101777.68;;;29.85;28.50
22572;BME280;11452;53.368;14.658;2022-08-11T14:23:04;101777.87;;;29.84;28.54
22572;BME280;11452;53.368;14.658;2022-08-11T14:28:10;101769.41;;;29.85;28.44
22572;BME280;11452;53.368;14.658;2022-08-11T14:33:17;101766.55;;;29.98;28.35
22572;BME280;11452;53.368;14.658;2022-08-11T14:38:24;101761.52;;;30.01;28.18
22572;BME280;11452;53.368;14.658;2022-08-11T14:43:30;101755.72;;;30.40;28.08
22572;BME280;11452;53.368;14.658;2022-08-11T14:48:39;101743.80;;;30.54;28.44
22572;BME280;11452;53.368;14.658;2022-08-11T14:53:46;101745.73;;;30.39;27.77
22572;BME280;11452;53.368;14.658;2022-08-11T14:58:53;101740.75;;;30.49;27.68
22572;BME280;11452;53.368;14.658;2022-08-11T15:04:00;101744.03;;;30.23;27.62
22572;BME280;11452;53.368;14.658;2022-08-11T15:09:08;101744.97;;;29.97;27.95
22572;BME280;11452;53.368;14.658;2022-08-11T15:14:14;101740.91;;;29.89;28.61
22572;BME280;11452;53.368;14.658;2022-08-11T15:19:23;101743.03;;;30.06;28.70
22572;BME280;11452;53.368;14.658;2022-08-11T15:24:29;101739.30;;;29.80;28.61
22572;BME280;11452;53.368;14.658;2022-08-11T15:29:38;101739.48;;;29.78;29.16
22572;BME280;11452;53.368;14.658;2022-08-11T15:35:04;101732.26;;;29.58;28.94
22572;BME280;11452;53.368;14.658;2022-08-11T15:40:34;101723.93;;;29.48;29.53
22572;BME280;11452;53.368;14.658;2022-08-11T15:46:13;101733.94;;;29.45;29.81
22572;BME280;11452;53.368;14.658;2022-08-11T15:56:30;101723.62;;;29.43;30.54
22572;BME280;11452;53.368;14.658;2022-08-11T16:01:39;101724.84;;;29.40;31.36
22572;BME280;11452;53.368;14.658;2022-08-11T16:07:18;101719.64;;;29.45;31.85
22572;BME280;11452;53.368;14.658;2022-08-11T16:12:28;101722.55;;;29.48;33.01
22572;BME280;11452;53.368;14.658;2022-08-11T16:17:53;101722.13;;;29.55;32.52
22572;BME280;11452;53.368;14.658;2022-08-11T16:23:01;101721.08;;;29.56;32.44
22572;BME280;11452;53.368;14.658;2022-08-11T16:28:06;101713.83;;;29.40;33.48
22572;BME280;11452;53.368;14.658;2022-08-11T16:33:15;101713.30;;;29.41;34.43
22572;BME280;11452;53.368;14.658;2022-08-11T16:38:28;101707.91;;;29.24;34.54
22572;BME280;11452;53.368;14.658;2022-08-11T16:43:43;101710.38;;;29.15;35.68
22572;BME280;11452;53.368;14.658;2022-08-11T16:49:16;101707.30;;;29.33;36.18
22572;BME280;11452;53.368;14.658;2022-08-11T16:54:18;101711.20;;;29.20;35.95
22572;BME280;11452;53.368;14.658;2022-08-11T16:59:29;101710.09;;;29.10;37.28
22572;BME280;11452;53.368;14.658;2022-08-11T17:04:50;101718.41;;;29.25;37.37
22572;BME280;11452;53.368;14.658;2022-08-11T17:10:17;101711.83;;;29.07;37.51
22572;BME280;11452;53.368;14.658;2022-08-11T17:15:50;101710.83;;;28.73;37.48
22572;BME280;11452;53.368;14.658;2022-08-11T17:21:20;101705.64;;;28.43;37.64
22572;BME280;11452;53.368;14.658;2022-08-11T17:26:28;101705.76;;;28.07;38.03
22572;BME280;11452;53.368;14.658;2022-08-11T17:31:36;101718.91;;;27.80;38.61
22572;BME280;11452;53.368;14.658;2022-08-11T17:36:59;101729.55;;;27.67;38.86
22572;BME280;11452;53.368;14.658;2022-08-11T17:42:06;101728.00;;;27.36;38.94
22572;BME280;11452;53.368;14.658;2022-08-11T17:47:31;101729.55;;;27.22;39.29
22572;BME280;11452;53.368;14.658;2022-08-11T17:52:56;101728.30;;;26.97;39.22
22572;BME280;11452;53.368;14.658;2022-08-11T17:58:21;101729.78;;;26.79;39.69
22572;BME280;11452;53.368;14.658;2022-08-11T18:03:46;101738.31;;;26.64;39.66
22572;BME280;11452;53.368;14.658;2022-08-11T18:08:55;101740.67;;;26.50;39.79
22572;BME280;11452;53.368;14.658;2022-08-11T18:14:22;101744.05;;;26.40;39.79
22572;BME280;11452;53.368;14.658;2022-08-11T18:19:46;101741.52;;;26.21;39.66
22572;BME280;11452;53.368;14.658;2022-08-11T18:25:15;101752.81;;;26.14;39.89
22572;BME280;11452;53.368;14.658;2022-08-11T18:30:42;101761.80;;;26.02;39.99
22572;BME280;11452;53.368;14.658;2022-08-11T18:36:11;101756.64;;;25.95;39.97
22572;BME280;11452;53.368;14.658;2022-08-11T18:41:36;101756.85;;;25.80;40.32
22572;BME280;11452;53.368;14.658;2022-08-11T18:47:04;101759.91;;;25.73;40.45
22572;BME280;11452;53.368;14.658;2022-08-11T18:52:30;101757.36;;;25.58;40.50
22572;BME280;11452;53.368;14.658;2022-08-11T18:57:56;101763.52;;;25.38;40.84
22572;BME280;11452;53.368;14.658;2022-08-11T19:03:20;101770.08;;;25.27;41.05
22572;BME280;11452;53.368;14.658;2022-08-11T19:08:52;101764.84;;;25.16;41.53
22572;BME280;11452;53.368;14.658;2022-08-11T19:14:16;101764.38;;;25.03;41.46
22572;BME280;11452;53.368;14.658;2022-08-11T19:19:42;101761.41;;;24.86;41.62
22572;BME280;11452;53.368;14.658;2022-08-11T19:25:08;101761.86;;;24.64;42.13
22572;BME280;11452;53.368;14.658;2022-08-11T19:30:34;101757.23;;;24.51;42.34
22572;BME280;11452;53.368;14.658;2022-08-11T19:35:59;101753.19;;;24.41;42.54
22572;BME280;11452;53.368;14.658;2022-08-11T19:41:24;101754.95;;;24.33;42.80
22572;BME280;11452;53.368;14.658;2022-08-11T19:46:51;101756.98;;;24.21;43.10
22572;BME280;11452;53.368;14.658;2022-08-11T19:52:16;101756.47;;;24.08;43.36
22572;BME280;11452;53.368;14.658;2022-08-11T19:57:42;101748.05;;;23.92;43.84
22572;BME280;11452;53.368;14.658;2022-08-11T20:03:11;101750.92;;;23.80;44.28
22572;BME280;11452;53.368;14.658;2022-08-11T20:08:39;101750.75;;;23.68;44.55
22572;BME280;11452;53.368;14.658;2022-08-11T20:14:03;101750.84;;;23.53;45.04
22572;BME280;11452;53.368;14.658;2022-08-11T20:19:31;101753.67;;;23.42;45.38
22572;BME280;11452;53.368;14.658;2022-08-11T20:24:57;101753.40;;;23.26;45.68
22572;BME280;11452;53.368;14.658;2022-08-11T20:30:21;101753.19;;;23.13;46.06
22572;BME280;11452;53.368;14.658;2022-08-11T20:35:45;101750.08;;;23.03;46.32
22572;BME280;11452;53.368;14.658;2022-08-11T20:41:11;101756.77;;;22.95;46.57
22572;BME280;11452;53.368;14.658;2022-08-11T20:46:38;101758.09;;;22.85;46.82
22572;BME280;11452;53.368;14.658;2022-08-11T20:52:03;101760.27;;;22.82;46.87
22572;BME280;11452;53.368;14.658;2022-08-11T20:57:28;101756.33;;;22.74;46.91
22572;BME280;11452;53.368;14.658;2022-08-11T21:02:54;101766.20;;;22.66;46.84
22572;BME280;11452;53.368;14.658;2022-08-11T21:08:26;101765.30;;;23.05;46.07
22572;BME280;11452;53.368;14.658;2022-08-11T21:13:48;101763.20;;;22.69;46.63
22572;BME280;11452;53.368;14.658;2022-08-11T21:19:23;101770.23;;;22.62;46.64
22572;BME280;11452;53.368;14.658;2022-08-11T21:24:50;101772.86;;;22.58;46.61
22572;BME280;11452;53.368;14.658;2022-08-11T21:30:14;101774.48;;;22.45;46.77
22572;BME280;11452;53.368;14.658;2022-08-11T21:35:39;101771.56;;;22.37;46.72
22572;BME280;11452;53.368;14.658;2022-08-11T21:41:03;101777.91;;;22.32;46.69
22572;BME280;11452;53.368;14.658;2022-08-11T21:46:27;101777.31;;;22.28;46.67
22572;BME280;11452;53.368;14.658;2022-08-11T21:51:52;101777.39;;;22.23;46.74
22572;BME280;11452;53.368;14.658;2022-08-11T21:57:16;101781.64;;;22.16;46.79
22572;BME280;11452;53.368;14.658;2022-08-11T22:02:45;101778.45;;;22.10;46.73
22572;BME280;11452;53.368;14.658;2022-08-11T22:08:09;101768.25;;;22.03;46.79
22572;BME280;11452;53.368;14.658;2022-08-11T22:13:34;101771.24;;;22.00;46.80
22572;BME280;11452;53.368;14.658;2022-08-11T22:18:59;101768.02;;;21.95;46.81
22572;BME280;11452;53.368;14.658;2022-08-11T22:24:25;101769.28;;;21.91;46.89
22572;BME280;11452;53.368;14.658;2022-08-11T22:29:51;101766.35;;;21.88;46.97
22572;BME280;11452;53.368;14.658;2022-08-11T22:35:16;101764.42;;;21.79;47.06
22572;BME280;11452;53.368;14.658;2022-08-11T22:40:39;101759.60;;;21.77;47.12
22572;BME280;11452;53.368;14.658;2022-08-11T22:46:04;101764.19;;;21.76;47.15
22572;BME280;11452;53.368;14.658;2022-08-11T22:51:27;101769.65;;;21.71;47.24
22572;BME280;11452;53.368;14.658;2022-08-11T22:56:52;101766.62;;;21.64;47.38
22572;BME280;11452;53.368;14.658;2022-08-11T23:02:15;101770.36;;;21.58;47.52
22572;BME280;11452;53.368;14.658;2022-08-11T23:07:40;101773.13;;;21.52;47.62
22572;BME280;11452;53.368;14.658;2022-08-11T23:13:05;101781.07;;;21.44;47.76
22572;BME280;11452;53.368;14.658;2022-08-11T23:18:29;101777.62;;;21.36;47.92
22572;BME280;11452;53.368;14.658;2022-08-11T23:23:53;101771.87;;;21.30;48.05
22572;BME280;11452;53.368;14.658;2022-08-11T23:29:18;101773.38;;;21.23;48.24
22572;BME280;11452;53.368;14.658;2022-08-11T23:34:43;101772.11;;;21.16;48.42
22572;BME280;11452;53.368;14.658;2022-08-11T23:40:10;101760.55;;;21.08;48.74
22572;BME280;11452;53.368;14.658;2022-08-11T23:45:33;101761.42;;;21.03;48.99
22572;BME280;11452;53.368;14.658;2022-08-11T23:50:59;101753.92;;;20.95;49.18
22572;BME280;11452;53.368;14.658;2022-08-11T23:56:22;101751.58;;;20.91;49.42
